createdAt,value
2018-06-10T00:00:08.598Z,13.30
2018-06-10T00:02:37.380Z,13.39
2018-06-10T00:05:06.208Z,13.53
2018-06-10T00:07:35.012Z,13.35
2018-06-10T00:10:03.877Z,13.40
2018-06-10T00:12:32.659Z,13.58
2018-06-10T00:15:01.458Z,13.58
2018-06-10T00:17:30.251Z,13.46
2018-06-10T00:19:59.033Z,13.52
2018-06-10T00:22:27.838Z,13.21
2018-06-10T00:24:56.680Z,13.30
2018-06-10T00:27:25.482Z,13.34
2018-06-10T00:29:54.301Z,13.43
2018-06-10T00:32:23.106Z,13.16
2018-06-10T00:34:51.893Z,13.29
2018-06-10T00:37:20.702Z,13.22
2018-06-10T00:39:49.493Z,13.21
2018-06-10T00:42:18.278Z,13.07
2018-06-10T00:44:47.087Z,13.21
2018-06-10T00:47:15.867Z,13.41
2018-06-10T00:49:44.658Z,13.00
2018-06-10T00:52:13.441Z,13.12
2018-06-10T00:54:42.240Z,13.10
2018-06-10T00:57:11.036Z,13.25
2018-06-10T00:59:39.833Z,13.35
2018-06-10T01:02:08.633Z,12.98
2018-06-10T01:04:37.424Z,13.27
2018-06-10T01:07:06.278Z,13.19
2018-06-10T01:09:35.078Z,13.26
2018-06-10T01:12:03.958Z,13.20
2018-06-10T01:14:32.795Z,13.25
2018-06-10T01:17:01.589Z,12.83
2018-06-10T01:19:30.418Z,12.85
2018-06-10T01:21:59.237Z,12.96
2018-06-10T01:24:28.051Z,13.20
2018-06-10T01:26:56.975Z,12.84
2018-06-10T01:29:25.861Z,12.80
2018-06-10T01:31:54.746Z,12.99
2018-06-10T01:34:23.626Z,12.57
2018-06-10T01:36:52.505Z,12.82
2018-06-10T01:39:21.362Z,12.94
2018-06-10T01:41:50.196Z,12.54
2018-06-10T01:44:19.077Z,12.51
2018-06-10T01:46:47.897Z,12.74
2018-06-10T01:49:16.757Z,12.81
2018-06-10T01:51:45.624Z,12.86
2018-06-10T01:54:14.477Z,12.66
2018-06-10T01:56:43.358Z,12.65
2018-06-10T01:59:12.242Z,12.80
2018-06-10T02:01:41.093Z,13.04
2018-06-10T02:04:09.956Z,12.95
2018-06-10T02:06:38.834Z,13.09
2018-06-10T02:09:07.826Z,12.92
2018-06-10T02:11:36.658Z,13.03
2018-06-10T02:14:05.628Z,12.85
2018-06-10T02:16:34.482Z,13.02
2018-06-10T02:19:03.440Z,13.05
2018-06-10T02:21:32.309Z,12.70
2018-06-10T02:24:01.179Z,12.50
2018-06-10T02:26:30.012Z,12.87
2018-06-10T02:28:58.891Z,12.80
2018-06-10T02:31:27.758Z,12.72
2018-06-10T02:33:56.693Z,12.83
2018-06-10T02:36:25.674Z,13.09
2018-06-10T02:38:54.504Z,13.23
2018-06-10T02:41:23.341Z,12.95
2018-06-10T02:43:52.214Z,13.26
2018-06-10T02:46:21.077Z,12.82
2018-06-10T02:48:49.935Z,13.50
2018-06-10T02:51:18.852Z,13.50
2018-06-10T02:53:47.686Z,13.62
2018-06-10T02:56:16.474Z,13.49
2018-06-10T02:58:45.506Z,13.29
2018-06-10T03:01:15.248Z,13.25
2018-06-10T03:03:44.074Z,13.25
2018-06-10T03:06:12.967Z,13.50
2018-06-10T03:08:41.885Z,13.14
2018-06-10T03:11:10.778Z,13.46
2018-06-10T03:13:39.616Z,13.54
2018-06-10T03:16:08.430Z,13.56
2018-06-10T03:18:37.260Z,13.24
2018-06-10T03:21:06.139Z,13.57
2018-06-10T03:23:34.934Z,13.56
2018-06-10T03:26:03.781Z,13.23
2018-06-10T03:28:32.634Z,13.17
2018-06-10T03:31:01.478Z,13.30
2018-06-10T03:33:30.339Z,13.30
2018-06-10T03:35:59.198Z,13.23
2018-06-10T03:38:28.030Z,13.25
2018-06-10T03:40:56.866Z,13.21
2018-06-10T03:43:25.755Z,13.38
2018-06-10T03:45:54.608Z,13.51
2018-06-10T03:48:23.446Z,13.56
2018-06-10T03:50:52.328Z,13.54
2018-06-10T03:53:21.202Z,13.26
2018-06-10T03:55:50.134Z,13.19
2018-06-10T03:58:19.024Z,13.09
2018-06-10T04:00:47.881Z,13.15
2018-06-10T04:03:16.741Z,13.35
2018-06-10T04:05:45.654Z,13.21
2018-06-10T04:08:14.543Z,13.15
2018-06-10T04:10:43.405Z,13.26
2018-06-10T04:13:12.607Z,13.51
2018-06-10T04:15:41.455Z,13.41
2018-06-10T04:18:10.317Z,13.42
2018-06-10T04:20:39.230Z,13.37
2018-06-10T04:23:07.997Z,13.46
2018-06-10T04:25:36.764Z,13.54
2018-06-10T04:28:05.578Z,13.95
2018-06-10T04:30:34.359Z,13.85
2018-06-10T04:33:03.138Z,13.84
2018-06-10T04:35:31.957Z,13.79
2018-06-10T04:38:00.746Z,13.78
2018-06-10T04:40:29.537Z,13.77
2018-06-10T04:42:58.634Z,13.57
2018-06-10T04:45:27.422Z,13.86
2018-06-10T04:47:56.197Z,13.89
2018-06-10T04:50:25.033Z,14.02
2018-06-10T04:52:57.497Z,14.04
2018-06-10T04:55:26.320Z,14.08
2018-06-10T04:57:55.121Z,14.19
2018-06-10T05:00:23.996Z,14.31
2018-06-10T05:02:52.788Z,14.36
2018-06-10T05:05:21.574Z,14.37
2018-06-10T05:07:50.374Z,14.58
2018-06-10T05:10:19.232Z,14.50
2018-06-10T05:12:48.056Z,14.34
2018-06-10T05:15:16.832Z,14.59
2018-06-10T05:17:45.645Z,14.65
2018-06-10T05:20:14.553Z,14.60
2018-06-10T05:22:43.365Z,14.64
2018-06-10T05:25:12.246Z,14.81
2018-06-10T05:27:41.123Z,14.83
2018-06-10T05:30:09.980Z,14.87
2018-06-10T05:32:38.854Z,14.90
2018-06-10T05:35:07.651Z,14.96
2018-06-10T05:37:36.542Z,14.92
2018-06-10T05:40:05.531Z,15.00
2018-06-10T05:42:34.335Z,15.10
2018-06-10T05:45:03.142Z,15.16
2018-06-10T05:47:31.930Z,15.16
2018-06-10T05:50:00.702Z,15.25
2018-06-10T05:52:29.490Z,15.27
2018-06-10T05:54:58.303Z,15.30
2018-06-10T05:57:27.066Z,15.35
2018-06-10T05:59:55.871Z,15.31
2018-06-10T06:02:24.671Z,15.44
2018-06-10T06:04:53.458Z,15.49
2018-06-10T06:07:22.246Z,15.50
2018-06-10T06:09:51.097Z,15.49
2018-06-10T06:12:19.870Z,15.49
2018-06-10T06:14:48.668Z,15.51
2018-06-10T06:17:17.488Z,15.58
2018-06-10T06:19:46.273Z,15.70
2018-06-10T06:22:15.133Z,15.21
2018-06-10T06:24:43.945Z,15.78
2018-06-10T06:27:12.722Z,15.83
2018-06-10T06:29:41.478Z,15.83
2018-06-10T06:32:10.302Z,15.85
2018-06-10T06:34:39.089Z,15.92
2018-06-10T06:37:07.911Z,16.02
2018-06-10T06:39:36.718Z,16.06
2018-06-10T06:42:05.526Z,16.08
2018-06-10T06:44:34.345Z,16.05
2018-06-10T06:47:03.176Z,15.98
2018-06-10T06:49:31.970Z,15.98
2018-06-10T06:52:00.816Z,16.03
2018-06-10T06:54:29.634Z,16.05
2018-06-10T06:56:58.413Z,16.13
2018-06-10T06:59:27.226Z,16.12
2018-06-10T07:01:55.987Z,16.08
2018-06-10T07:04:24.771Z,16.19
2018-06-10T07:06:53.583Z,16.26
2018-06-10T07:09:22.573Z,16.31
2018-06-10T07:11:51.366Z,16.38
2018-06-10T07:14:20.218Z,16.49
2018-06-10T07:16:49.096Z,16.55
2018-06-10T07:19:17.876Z,16.64
2018-06-10T07:21:46.658Z,16.72
2018-06-10T07:24:15.461Z,16.71
2018-06-10T07:26:44.258Z,16.73
2018-06-10T07:29:13.029Z,16.76
2018-06-10T07:31:41.844Z,16.75
2018-06-10T07:34:10.626Z,16.77
2018-06-10T07:36:39.411Z,16.73
2018-06-10T07:39:08.829Z,16.73
2018-06-10T07:41:37.696Z,16.77
2018-06-10T07:44:06.508Z,16.77
2018-06-10T07:46:35.341Z,16.78
2018-06-10T07:49:04.167Z,16.79
2018-06-10T07:51:32.946Z,16.75
2018-06-10T07:54:01.739Z,16.75
2018-06-10T07:56:30.530Z,16.69
2018-06-10T07:58:59.317Z,16.70
2018-06-10T08:01:28.140Z,16.72
2018-06-10T08:03:56.934Z,16.69
2018-06-10T08:06:25.731Z,16.72
2018-06-10T08:08:54.602Z,16.75
2018-06-10T08:11:23.380Z,16.75
2018-06-10T08:13:52.161Z,16.78
2018-06-10T08:16:20.946Z,16.76
2018-06-10T08:18:49.716Z,16.77
2018-06-10T08:21:18.501Z,16.80
2018-06-10T08:23:47.269Z,16.81
2018-06-10T08:26:16.041Z,16.81
2018-06-10T08:28:44.849Z,16.86
2018-06-10T08:31:13.660Z,16.85
2018-06-10T08:33:42.452Z,16.87
2018-06-10T08:36:11.219Z,16.77
2018-06-10T08:38:40.056Z,16.83
2018-06-10T08:41:08.853Z,16.79
2018-06-10T08:43:37.662Z,16.82
2018-06-10T08:46:06.478Z,16.86
2018-06-10T08:48:35.263Z,16.87
2018-06-10T08:51:04.031Z,16.86
2018-06-10T08:53:32.829Z,16.88
2018-06-10T08:56:01.576Z,16.90
2018-06-10T08:58:30.395Z,16.89
2018-06-10T09:00:59.194Z,16.96
2018-06-10T09:03:27.979Z,16.92
2018-06-10T09:05:56.746Z,16.96
2018-06-10T09:08:25.526Z,16.93
2018-06-10T09:10:54.328Z,17.00
2018-06-10T09:13:23.128Z,17.06
2018-06-10T09:15:51.909Z,17.07
2018-06-10T09:18:20.677Z,17.07
2018-06-10T09:20:49.454Z,17.06
2018-06-10T09:23:18.261Z,17.05
2018-06-10T09:25:47.038Z,17.02
2018-06-10T09:28:15.806Z,17.00
2018-06-10T09:30:44.603Z,17.03
2018-06-10T09:33:13.378Z,17.06
2018-06-10T09:35:42.189Z,17.05
2018-06-10T09:38:11.014Z,17.06
2018-06-10T09:40:39.812Z,17.08
2018-06-10T09:43:08.591Z,17.09
2018-06-10T09:45:37.416Z,17.11
2018-06-10T09:48:06.423Z,17.11
2018-06-10T09:50:35.194Z,17.13
2018-06-10T09:53:03.998Z,17.14
2018-06-10T09:55:32.892Z,17.14
2018-06-10T09:58:01.579Z,17.14
2018-06-10T10:00:30.415Z,17.16
2018-06-10T10:02:59.234Z,17.19
2018-06-10T10:05:28.032Z,17.23
2018-06-10T10:07:56.870Z,17.23
2018-06-10T10:10:25.625Z,17.24
2018-06-10T10:12:54.406Z,17.27
2018-06-10T10:15:23.378Z,17.28
2018-06-10T10:17:52.187Z,17.29
2018-06-10T10:20:20.943Z,17.36
2018-06-10T10:22:49.776Z,17.38
2018-06-10T10:25:18.606Z,17.36
2018-06-10T10:27:47.384Z,17.25
2018-06-10T10:30:16.214Z,17.43
2018-06-10T10:32:45.030Z,17.44
2018-06-10T10:35:13.814Z,17.49
2018-06-10T10:37:42.617Z,17.51
2018-06-10T10:40:11.408Z,17.50
2018-06-10T10:42:40.213Z,17.55
2018-06-10T10:45:09.018Z,17.56
2018-06-10T10:47:37.789Z,17.54
2018-06-10T10:50:06.562Z,17.56
2018-06-10T10:52:35.393Z,17.63
2018-06-10T10:55:04.205Z,17.63
2018-06-10T10:57:32.983Z,17.59
2018-06-10T11:00:01.816Z,17.64
2018-06-10T11:02:30.618Z,17.65
2018-06-10T11:04:59.530Z,17.68
2018-06-10T11:07:28.389Z,17.67
2018-06-10T11:09:57.200Z,17.68
2018-06-10T11:12:25.994Z,17.72
2018-06-10T11:14:54.802Z,17.72
2018-06-10T11:17:23.556Z,17.73
2018-06-10T11:19:52.326Z,17.73
2018-06-10T11:22:21.128Z,17.73
2018-06-10T11:24:49.901Z,17.70
2018-06-10T11:27:18.680Z,17.71
2018-06-10T11:29:47.474Z,17.22
2018-06-10T11:32:16.250Z,17.78
2018-06-10T11:34:45.057Z,17.77
2018-06-10T11:37:13.974Z,17.80
2018-06-10T11:39:42.767Z,17.85
2018-06-10T11:42:11.609Z,17.82
2018-06-10T11:44:40.452Z,17.81
2018-06-10T11:47:09.234Z,17.79
2018-06-10T11:49:38.025Z,17.86
2018-06-10T11:52:07.024Z,17.89
2018-06-10T11:54:35.740Z,17.91
2018-06-10T11:57:04.529Z,17.89
2018-06-10T11:59:33.319Z,17.94
2018-06-10T12:02:02.298Z,17.93
2018-06-10T12:04:31.102Z,17.97
2018-06-10T12:06:59.914Z,17.97
2018-06-10T12:09:28.758Z,17.95
2018-06-10T12:11:57.511Z,17.95
2018-06-10T12:14:26.316Z,17.96
2018-06-10T12:16:55.135Z,17.97
2018-06-10T12:19:23.889Z,17.98
2018-06-10T12:21:52.694Z,18.00
2018-06-10T12:24:21.454Z,18.02
2018-06-10T12:26:50.304Z,18.06
2018-06-10T12:29:19.121Z,18.03
2018-06-10T12:31:47.951Z,18.09
2018-06-10T12:34:16.712Z,18.06
2018-06-10T12:36:45.536Z,18.08
2018-06-10T12:39:14.285Z,18.10
2018-06-10T12:41:43.109Z,18.08
2018-06-10T12:44:11.885Z,18.14
2018-06-10T12:46:40.638Z,18.24
2018-06-10T12:49:09.499Z,18.23
2018-06-10T12:51:38.325Z,18.37
2018-06-10T12:54:07.145Z,18.33
2018-06-10T12:56:35.931Z,18.33
2018-06-10T12:59:04.811Z,18.35
2018-06-10T13:01:33.596Z,18.33
2018-06-10T13:04:02.347Z,18.30
2018-06-10T13:06:31.146Z,18.38
2018-06-10T13:08:59.922Z,18.44
2018-06-10T13:11:28.740Z,18.38
2018-06-10T13:13:57.566Z,18.34
2018-06-10T13:16:27.195Z,18.32
2018-06-10T13:18:55.953Z,18.32
2018-06-10T13:21:24.788Z,18.27
2018-06-10T13:23:53.579Z,18.27
2018-06-10T13:26:22.348Z,18.27
2018-06-10T13:28:51.157Z,18.27
2018-06-10T13:31:19.934Z,18.29
2018-06-10T13:33:48.739Z,18.24
2018-06-10T13:36:17.483Z,18.28
2018-06-10T13:38:46.395Z,18.29
2018-06-10T13:41:15.200Z,18.33
2018-06-10T13:43:44.093Z,18.33
2018-06-10T13:46:12.973Z,18.34
2018-06-10T13:48:41.776Z,18.34
2018-06-10T13:51:10.595Z,18.36
2018-06-10T13:53:39.396Z,18.38
2018-06-10T13:56:08.183Z,18.38
2018-06-10T13:58:37.008Z,18.43
2018-06-10T14:01:05.767Z,18.51
2018-06-10T14:03:34.534Z,18.52
2018-06-10T14:06:03.463Z,18.57
2018-06-10T14:08:32.266Z,18.62
2018-06-10T14:11:01.066Z,18.66
2018-06-10T14:13:29.957Z,18.70
2018-06-10T14:15:58.775Z,18.80
2018-06-10T14:18:27.601Z,18.84
2018-06-10T14:20:56.507Z,18.89
2018-06-10T14:23:25.301Z,18.86
2018-06-10T14:25:54.122Z,18.84
2018-06-10T14:28:23.518Z,18.79
2018-06-10T14:30:52.314Z,18.76
2018-06-10T14:33:21.118Z,18.80
2018-06-10T14:35:49.946Z,18.82
2018-06-10T14:38:18.709Z,18.84
2018-06-10T14:40:47.522Z,18.89
2018-06-10T14:43:16.385Z,18.93
2018-06-10T14:45:45.179Z,18.95
2018-06-10T14:48:13.942Z,18.94
2018-06-10T14:50:42.797Z,18.95
2018-06-10T14:53:11.591Z,18.94
2018-06-10T14:55:40.421Z,18.96
2018-06-10T14:58:09.197Z,18.96
2018-06-10T15:00:37.999Z,18.97
2018-06-10T15:03:06.758Z,18.96
2018-06-10T15:05:35.562Z,18.99
2018-06-10T15:08:04.318Z,18.98
2018-06-10T15:10:33.085Z,19.05
2018-06-10T15:13:01.906Z,19.10
2018-06-10T15:15:30.720Z,19.13
2018-06-10T15:17:59.514Z,19.13
2018-06-10T15:20:28.310Z,19.14
2018-06-10T15:22:57.099Z,19.10
2018-06-10T15:25:25.921Z,19.06
2018-06-10T15:27:54.789Z,19.04
2018-06-10T15:30:23.621Z,18.91
2018-06-10T15:32:52.460Z,19.02
2018-06-10T15:35:21.309Z,19.05
2018-06-10T15:37:50.147Z,19.03
2018-06-10T15:40:18.975Z,19.03
2018-06-10T15:42:47.886Z,19.05
2018-06-10T15:45:16.729Z,19.08
2018-06-10T15:47:45.542Z,19.11
2018-06-10T15:50:14.386Z,19.10
2018-06-10T15:52:43.149Z,19.11
2018-06-10T15:55:11.962Z,19.15
2018-06-10T15:57:40.783Z,19.15
2018-06-10T16:00:09.578Z,19.10
2018-06-10T16:02:38.409Z,19.10
2018-06-10T16:05:07.332Z,19.05
2018-06-10T16:07:37.817Z,19.04
2018-06-10T16:10:06.674Z,18.99
2018-06-10T16:12:35.510Z,18.97
2018-06-10T16:15:04.389Z,18.97
2018-06-10T16:17:33.166Z,18.93
2018-06-10T16:20:02.115Z,18.91
2018-06-10T16:22:30.942Z,18.88
2018-06-10T16:24:59.749Z,18.86
2018-06-10T16:27:28.536Z,18.87
2018-06-10T16:29:57.315Z,18.87
2018-06-10T16:32:33.115Z,18.89
2018-06-10T16:35:01.874Z,18.91
2018-06-10T16:37:30.624Z,18.81
2018-06-10T16:39:59.446Z,18.84
2018-06-10T16:42:28.239Z,18.80
2018-06-10T16:44:57.129Z,18.81
2018-06-10T16:47:25.949Z,18.78
2018-06-10T16:49:54.741Z,18.77
2018-06-10T16:52:23.542Z,18.79
2018-06-10T16:54:52.352Z,18.71
2018-06-10T16:57:21.137Z,18.72
2018-06-10T16:59:49.927Z,18.74
2018-06-10T17:02:18.741Z,18.71
2018-06-10T17:04:47.550Z,18.71
2018-06-10T17:07:16.318Z,18.66
2018-06-10T17:09:45.230Z,18.51
2018-06-10T17:12:14.095Z,18.65
2018-06-10T17:14:42.915Z,18.63
2018-06-10T17:17:11.807Z,18.65
2018-06-10T17:19:40.606Z,18.64
2018-06-10T17:22:09.446Z,18.60
2018-06-10T17:24:38.444Z,18.59
2018-06-10T17:27:07.303Z,18.60
2018-06-10T17:29:36.146Z,18.58
2018-06-10T17:32:05.169Z,18.61
2018-06-10T17:34:34.023Z,18.64
2018-06-10T17:37:02.850Z,18.65
2018-06-10T17:39:31.704Z,18.61
2018-06-10T17:42:00.506Z,18.60
2018-06-10T17:44:29.386Z,18.56
2018-06-10T17:46:58.220Z,18.55
2018-06-10T17:49:27.057Z,18.54
2018-06-10T17:51:55.854Z,18.50
2018-06-10T17:54:24.658Z,18.50
2018-06-10T17:56:53.522Z,18.47
2018-06-10T17:59:22.298Z,18.46
2018-06-10T18:01:51.101Z,18.44
2018-06-10T18:04:19.946Z,18.49
2018-06-10T18:06:48.750Z,18.49
2018-06-10T18:09:17.756Z,18.49
2018-06-10T18:11:46.598Z,18.48
2018-06-10T18:14:15.459Z,18.48
2018-06-10T18:16:44.382Z,18.50
2018-06-10T18:19:13.220Z,18.47
2018-06-10T18:21:42.071Z,18.46
2018-06-10T18:24:11.028Z,18.44
2018-06-10T18:26:40.107Z,18.43
2018-06-10T18:29:08.894Z,18.42
2018-06-10T18:31:37.746Z,18.40
2018-06-10T18:34:06.580Z,18.43
2018-06-10T18:36:35.410Z,18.33
2018-06-10T18:39:04.592Z,18.38
2018-06-10T18:41:33.444Z,18.40
2018-06-10T18:44:02.354Z,18.37
2018-06-10T18:46:31.323Z,18.31
2018-06-10T18:49:00.188Z,18.30
2018-06-10T18:51:29.095Z,18.25
2018-06-10T18:53:57.972Z,18.28
2018-06-10T18:56:26.830Z,18.28
2018-06-10T18:58:55.676Z,18.03
2018-06-10T19:01:24.568Z,18.09
2018-06-10T19:03:53.489Z,18.14
2018-06-10T19:06:22.403Z,18.16
2018-06-10T19:08:51.976Z,18.05
2018-06-10T19:11:20.782Z,17.92
2018-06-10T19:13:49.619Z,17.80
2018-06-10T19:16:18.511Z,17.78
2018-06-10T19:18:47.339Z,18.10
2018-06-10T19:21:16.236Z,17.94
2018-06-10T19:23:45.033Z,18.04
2018-06-10T19:26:13.842Z,17.85
2018-06-10T19:28:42.806Z,17.94
2018-06-10T19:31:11.774Z,17.98
2018-06-10T19:33:40.600Z,17.93
2018-06-10T19:36:09.454Z,17.92
2018-06-10T19:38:38.368Z,18.00
2018-06-10T19:41:07.250Z,18.03
2018-06-10T19:43:36.087Z,18.08
2018-06-10T19:46:04.942Z,17.79
2018-06-10T19:48:33.805Z,18.01
2018-06-10T19:51:02.746Z,17.86
2018-06-10T19:53:31.569Z,17.83
2018-06-10T19:56:00.503Z,17.85
2018-06-10T19:58:29.366Z,17.99
2018-06-10T20:00:58.228Z,17.84
2018-06-10T20:03:27.113Z,17.91
2018-06-10T20:05:56.004Z,17.76
2018-06-10T20:08:24.838Z,17.82
2018-06-10T20:10:53.682Z,17.85
2018-06-10T20:13:22.510Z,17.80
2018-06-10T20:15:51.354Z,17.84
2018-06-10T20:18:20.212Z,17.76
2018-06-10T20:20:49.055Z,17.63
2018-06-10T20:23:17.866Z,17.72
2018-06-10T20:25:46.661Z,17.39
2018-06-10T20:28:15.506Z,17.57
2018-06-10T20:30:44.438Z,17.54
2018-06-10T20:33:13.170Z,17.28
2018-06-10T20:35:42.025Z,17.15
2018-06-10T20:38:10.915Z,17.30
2018-06-10T20:40:39.854Z,17.06
2018-06-10T20:43:09.260Z,17.27
2018-06-10T20:45:38.221Z,17.10
2018-06-10T20:48:07.040Z,17.30
2018-06-10T20:50:35.862Z,17.32
2018-06-10T20:53:04.722Z,17.10
2018-06-10T20:55:33.609Z,16.95
2018-06-10T20:58:02.384Z,16.79
2018-06-10T21:00:31.214Z,16.64
2018-06-10T21:03:00.098Z,16.95
2018-06-10T21:05:28.946Z,16.87
2018-06-10T21:07:57.769Z,16.78
2018-06-10T21:10:26.578Z,16.79
2018-06-10T21:12:55.377Z,16.35
2018-06-10T21:15:24.241Z,16.57
2018-06-10T21:17:53.050Z,16.62
2018-06-10T21:20:21.822Z,16.19
2018-06-10T21:22:50.665Z,16.42
2018-06-10T21:25:19.487Z,16.13
2018-06-10T21:27:48.317Z,16.24
2018-06-10T21:30:17.195Z,16.12
2018-06-10T21:32:46.022Z,16.28
2018-06-10T21:35:14.814Z,16.44
2018-06-10T21:37:43.635Z,15.87
2018-06-10T21:40:12.451Z,16.01
2018-06-10T21:42:41.261Z,16.03
2018-06-10T21:45:10.106Z,16.19
2018-06-10T21:47:38.910Z,15.74
2018-06-10T21:50:07.727Z,16.06
2018-06-10T21:52:36.702Z,16.07
2018-06-10T21:55:05.523Z,16.03
2018-06-10T21:57:34.333Z,15.92
2018-06-10T22:00:03.214Z,16.05
2018-06-10T22:02:32.015Z,15.83
2018-06-10T22:05:00.854Z,15.85
2018-06-10T22:07:29.686Z,16.09
2018-06-10T22:09:58.511Z,16.07
2018-06-10T22:12:27.341Z,16.04
2018-06-10T22:14:56.211Z,15.89
2018-06-10T22:17:25.058Z,16.05
2018-06-10T22:19:53.871Z,15.84
2018-06-10T22:22:22.814Z,15.86
2018-06-10T22:24:51.646Z,15.69
2018-06-10T22:27:20.447Z,15.74
2018-06-10T22:29:49.252Z,15.73
2018-06-10T22:32:18.053Z,15.70
2018-06-10T22:34:46.878Z,15.74
2018-06-10T22:37:15.724Z,15.69
2018-06-10T22:39:44.522Z,15.60
2018-06-10T22:42:13.351Z,15.46
2018-06-10T22:44:42.186Z,15.52
2018-06-10T22:47:11.097Z,15.49
2018-06-10T22:49:39.931Z,15.69
2018-06-10T22:52:08.779Z,15.51
2018-06-10T22:54:40.654Z,15.68
2018-06-10T22:57:09.682Z,15.74
2018-06-10T22:59:38.512Z,15.81
2018-06-10T23:02:08.256Z,15.81
2018-06-10T23:04:37.110Z,15.57
2018-06-10T23:07:06.023Z,15.77
2018-06-10T23:09:34.825Z,15.59
2018-06-10T23:12:03.667Z,15.60
2018-06-10T23:14:32.486Z,15.67
2018-06-10T23:17:01.318Z,15.78
2018-06-10T23:19:30.189Z,15.73
2018-06-10T23:21:58.976Z,15.82
2018-06-10T23:24:27.796Z,15.76
2018-06-10T23:26:56.642Z,15.50
2018-06-10T23:29:25.440Z,15.50
2018-06-10T23:31:54.256Z,15.38
2018-06-10T23:34:23.122Z,15.30
2018-06-10T23:36:51.921Z,15.46
2018-06-10T23:39:20.748Z,15.32
2018-06-10T23:41:49.559Z,15.33
2018-06-10T23:44:18.418Z,15.50
2018-06-10T23:46:47.228Z,15.61
2018-06-10T23:49:16.643Z,15.69
2018-06-10T23:51:46.130Z,15.69
2018-06-10T23:54:14.955Z,15.75
2018-06-10T23:56:43.838Z,15.77
2018-06-10T23:59:12.680Z,15.68
